createdAt,value
2022-07-29T00:01:30.402Z,82.24
2022-07-29T00:06:34.835Z,82.01
2022-07-29T00:11:39.858Z,81.58
2022-07-29T00:16:44.431Z,81.21
2022-07-29T00:21:49.335Z,80.95
2022-07-29T00:26:54.499Z,80.93
2022-07-29T00:31:59.147Z,81.06
2022-07-29T00:37:04.244Z,81.39
2022-07-29T00:42:09.897Z,81.92
2022-07-29T00:47:14.785Z,81.94
2022-07-29T00:52:19.434Z,81.71
2022-07-29T00:57:27.003Z,81.86
2022-07-29T01:02:32.343Z,82.01
2022-07-29T01:07:38.798Z,82.06
2022-07-29T01:12:46.878Z,82.51
2022-07-29T01:18:18.856Z,82.49
2022-07-29T01:23:54.971Z,82.82
2022-07-29T01:29:56.046Z,83.98
2022-07-29T01:35:21.819Z,84.50
2022-07-29T01:40:41.022Z,84.34
2022-07-29T01:45:54.347Z,83.95
2022-07-29T01:51:06.474Z,84.31
2022-07-29T01:56:13.036Z,84.65
2022-07-29T02:01:19.628Z,84.75
2022-07-29T02:06:25.947Z,84.94
2022-07-29T02:11:35.050Z,85.39
2022-07-29T02:16:42.895Z,85.73
2022-07-29T02:21:49.040Z,86.13
2022-07-29T02:26:58.300Z,86.25
2022-07-29T02:32:04.403Z,86.70
2022-07-29T02:37:13.597Z,86.49
2022-07-29T02:42:24.558Z,86.42
2022-07-29T02:47:51.475Z,86.39
2022-07-29T02:53:14.194Z,86.48
2022-07-29T02:58:32.540Z,86.76
2022-07-29T03:03:40.717Z,87.11
2022-07-29T03:08:46.763Z,87.39
2022-07-29T03:13:54.932Z,87.51
2022-07-29T03:19:01.325Z,87.36
2022-07-29T03:24:12.549Z,87.07
2022-07-29T03:29:17.222Z,86.63
2022-07-29T03:34:25.385Z,86.69
2022-07-29T03:39:36.249Z,86.86
2022-07-29T03:44:46.248Z,87.08
2022-07-29T03:49:55.931Z,87.42
2022-07-29T03:55:00.837Z,87.47
2022-07-29T04:00:07.351Z,87.39
2022-07-29T04:05:16.665Z,87.27
2022-07-29T04:10:30.061Z,87.15
2022-07-29T04:15:37.787Z,87.11
2022-07-29T04:20:42.395Z,86.95
2022-07-29T04:25:50.102Z,86.84
2022-07-29T04:30:55.931Z,86.74
2022-07-29T04:36:00.317Z,86.56
2022-07-29T04:41:05.777Z,86.29
2022-07-29T04:46:10.660Z,86.07
2022-07-29T04:51:17.061Z,85.78
2022-07-29T04:56:21.666Z,85.47
2022-07-29T05:01:26.487Z,84.93
2022-07-29T05:06:31.605Z,84.63
2022-07-29T05:11:36.331Z,84.32
2022-07-29T05:16:44.792Z,84.05
2022-07-29T05:21:51.361Z,83.63
2022-07-29T05:26:59.744Z,82.81
2022-07-29T05:32:08.287Z,82.03
2022-07-29T05:37:15.332Z,81.18
2022-07-29T05:42:20.073Z,80.43
2022-07-29T05:47:26.912Z,79.64
2022-07-29T05:52:32.223Z,78.78
2022-07-29T05:57:36.674Z,77.46
2022-07-29T06:02:41.566Z,76.35
2022-07-29T06:07:50.108Z,74.80
2022-07-29T06:12:58.684Z,73.57
2022-07-29T06:18:03.658Z,71.91
2022-07-29T06:23:12.386Z,70.86
2022-07-29T06:28:17.426Z,70.01
2022-07-29T06:33:23.164Z,70.49
2022-07-29T06:38:31.516Z,69.49
2022-07-29T06:43:51.944Z,67.41
2022-07-29T06:48:58.423Z,66.69
2022-07-29T06:54:03.822Z,65.90
2022-07-29T06:59:12.997Z,64.57
2022-07-29T07:04:19.644Z,63.88
2022-07-29T07:09:40.587Z,62.96
2022-07-29T07:14:45.851Z,62.49
2022-07-29T07:19:51.038Z,60.85
2022-07-29T07:24:59.306Z,59.49
2022-07-29T07:30:10.514Z,58.51
2022-07-29T07:35:16.079Z,57.52
2022-07-29T07:40:22.312Z,56.29
2022-07-29T07:45:27.851Z,55.06
2022-07-29T07:50:32.400Z,53.94
2022-07-29T08:01:08.936Z,52.51
2022-07-29T08:06:17.035Z,52.81
2022-07-29T08:11:24.683Z,53.03
2022-07-29T08:16:30.846Z,51.58
2022-07-29T08:21:36.236Z,50.33
2022-07-29T08:26:41.289Z,49.88
2022-07-29T08:31:47.887Z,51.21
2022-07-29T08:36:52.943Z,49.65
2022-07-29T08:41:59.619Z,47.74
2022-07-29T08:47:05.382Z,49.59
2022-07-29T08:52:17.692Z,48.97
2022-07-29T08:57:29.010Z,49.26
2022-07-29T09:02:42.647Z,48.47
2022-07-29T09:07:49.764Z,48.36
2022-07-29T09:12:56.519Z,47.19
2022-07-29T09:18:02.289Z,47.13
2022-07-29T09:23:10.571Z,45.71
2022-07-29T09:28:22.059Z,45.12
2022-07-29T09:33:41.909Z,43.71
2022-07-29T09:39:04.859Z,43.57
2022-07-29T09:44:18.914Z,42.66
2022-07-29T09:49:23.903Z,42.83
2022-07-29T09:54:31.875Z,42.40
2022-07-29T09:59:37.062Z,42.85
2022-07-29T10:04:55.923Z,41.81
2022-07-29T10:10:01.995Z,41.60
2022-07-29T10:15:07.999Z,41.14
2022-07-29T10:20:16.492Z,40.96
2022-07-29T10:25:23.566Z,39.67
2022-07-29T10:30:31.472Z,40.52
2022-07-29T10:35:52.530Z,39.10
2022-07-29T10:41:43.731Z,39.29
2022-07-29T10:46:49.828Z,38.43
2022-07-29T10:52:11.955Z,38.05
2022-07-29T10:57:53.251Z,37.44
2022-07-29T11:02:55.730Z,37.74
2022-07-29T11:08:19.958Z,36.45
2022-07-29T11:13:44.768Z,35.92
2022-07-29T11:19:13.614Z,36.72
2022-07-29T11:24:37.748Z,37.19
2022-07-29T11:30:05.933Z,37.67
2022-07-29T11:35:37.088Z,37.19
2022-07-29T11:40:44.507Z,37.01
2022-07-29T11:45:52.997Z,36.67
2022-07-29T11:50:58.904Z,36.99
2022-07-29T11:56:04.928Z,37.25
2022-07-29T12:01:16.694Z,37.37
2022-07-29T12:06:24.839Z,37.36
2022-07-29T12:11:30.324Z,36.29
2022-07-29T12:16:39.344Z,36.31
2022-07-29T12:21:56.566Z,36.82
2022-07-29T12:27:02.599Z,37.43
2022-07-29T12:32:19.342Z,38.53
2022-07-29T12:37:33.325Z,38.15
2022-07-29T12:43:12.487Z,38.59
2022-07-29T12:48:18.175Z,38.74
2022-07-29T12:53:23.096Z,38.76
2022-07-29T12:58:45.209Z,38.80
2022-07-29T13:03:57.132Z,38.06
2022-07-29T13:09:10.420Z,38.55
2022-07-29T13:14:40.851Z,38.85
2022-07-29T13:19:56.424Z,39.62
2022-07-29T13:25:04.256Z,39.74
2022-07-29T13:30:20.880Z,39.48
2022-07-29T13:35:28.322Z,39.36
2022-07-29T13:40:34.516Z,39.54
2022-07-29T13:45:40.823Z,38.74
2022-07-29T13:50:47.665Z,37.95
2022-07-29T13:55:55.149Z,37.09
2022-07-29T14:00:59.810Z,37.21
2022-07-29T14:06:07.878Z,37.79
2022-07-29T14:11:16.649Z,38.38
2022-07-29T14:16:30.181Z,38.90
2022-07-29T14:21:37.861Z,39.50
2022-07-29T14:26:46.260Z,39.53
2022-07-29T14:31:56.517Z,39.86
2022-07-29T14:37:03.663Z,39.60
2022-07-29T14:42:13.087Z,38.51
2022-07-29T14:47:20.532Z,37.78
2022-07-29T14:52:26.275Z,37.53
2022-07-29T14:57:43.163Z,37.49
2022-07-29T15:03:01.880Z,37.23
2022-07-29T15:08:10.049Z,37.17
2022-07-29T15:13:16.448Z,36.63
2022-07-29T15:18:25.765Z,35.78
2022-07-29T15:23:31.878Z,35.28
2022-07-29T15:28:36.502Z,35.12
2022-07-29T15:33:42.210Z,35.40
2022-07-29T15:38:47.231Z,35.63
2022-07-29T15:43:53.521Z,35.33
2022-07-29T15:48:58.806Z,35.80
2022-07-29T15:54:07.188Z,35.97
2022-07-29T15:59:22.209Z,35.68
2022-07-29T16:04:28.583Z,34.50
2022-07-29T16:09:33.837Z,34.52
2022-07-29T16:14:39.631Z,33.68
2022-07-29T16:19:48.871Z,32.94
2022-07-29T16:24:54.065Z,32.97
2022-07-29T16:30:00.745Z,32.69
2022-07-29T16:35:08.606Z,33.35
2022-07-29T16:40:13.649Z,34.26
2022-07-29T16:45:46.474Z,34.91
2022-07-29T16:50:53.745Z,35.44
2022-07-29T16:55:59.003Z,36.07
2022-07-29T17:01:04.331Z,37.22
2022-07-29T17:06:09.552Z,38.14
2022-07-29T17:11:16.151Z,38.72
2022-07-29T17:16:26.328Z,38.85
2022-07-29T17:21:31.267Z,38.83
2022-07-29T17:26:36.217Z,39.60
2022-07-29T17:31:40.840Z,40.76
2022-07-29T17:36:46.177Z,41.85
2022-07-29T17:41:52.144Z,42.72
2022-07-29T17:46:57.763Z,43.42
2022-07-29T17:52:02.563Z,44.15
2022-07-29T17:57:07.579Z,44.97
2022-07-29T18:02:14.937Z,45.56
2022-07-29T18:07:19.923Z,46.31
2022-07-29T18:12:24.285Z,46.99
2022-07-29T18:17:34.581Z,47.73
2022-07-29T18:22:56.672Z,48.34
2022-07-29T18:28:01.806Z,49.07
2022-07-29T18:33:25.984Z,49.64
2022-07-29T18:38:31.063Z,50.33
2022-07-29T18:43:43.998Z,50.99
2022-07-29T18:48:54.668Z,51.43
2022-07-29T18:54:01.313Z,51.96
2022-07-29T18:59:07.785Z,52.78
2022-07-29T19:04:16.967Z,53.47
2022-07-29T19:09:24.511Z,54.17
2022-07-29T19:14:30.270Z,54.94
2022-07-29T19:19:36.043Z,55.46
2022-07-29T19:24:44.173Z,56.17
2022-07-29T19:29:49.319Z,56.90
2022-07-29T19:35:13.777Z,57.77
2022-07-29T19:40:21.134Z,58.78
2022-07-29T19:45:27.188Z,59.42
2022-07-29T19:50:36.917Z,59.94
2022-07-29T19:55:44.308Z,60.56
2022-07-29T20:00:51.988Z,61.06
2022-07-29T20:05:57.700Z,61.42
2022-07-29T20:11:04.807Z,61.72
2022-07-29T20:16:10.054Z,62.32
2022-07-29T20:21:14.861Z,62.77
2022-07-29T20:26:19.787Z,63.01
2022-07-29T20:31:25.289Z,63.53
2022-07-29T20:36:31.472Z,64.16
2022-07-29T20:41:37.504Z,64.57
2022-07-29T20:46:43.505Z,65.11
2022-07-29T20:51:47.629Z,65.47
2022-07-29T20:56:51.968Z,65.86
2022-07-29T21:01:56.386Z,66.20
2022-07-29T21:07:00.888Z,66.72
2022-07-29T21:12:05.975Z,67.39
2022-07-29T21:17:10.756Z,67.97
2022-07-29T21:22:15.109Z,68.02
2022-07-29T21:27:38.565Z,67.79
2022-07-29T21:32:42.971Z,68.21
2022-07-29T21:37:47.367Z,68.66
2022-07-29T21:42:51.515Z,69.16
2022-07-29T21:47:55.948Z,69.69
2022-07-29T21:53:00.622Z,70.17
2022-07-29T21:58:05.438Z,70.77
2022-07-29T22:03:10.604Z,70.87
2022-07-29T22:08:15.139Z,70.96
2022-07-29T22:13:19.285Z,71.25
2022-07-29T22:18:23.309Z,71.46
2022-07-29T22:23:27.558Z,71.59
2022-07-29T22:28:31.905Z,71.80
2022-07-29T22:33:36.038Z,72.29
2022-07-29T22:38:40.365Z,72.63
2022-07-29T22:43:44.604Z,72.49
2022-07-29T22:48:48.675Z,72.36
2022-07-29T22:53:53.084Z,72.66
2022-07-29T22:58:57.417Z,72.71
2022-07-29T23:04:01.625Z,72.48
2022-07-29T23:09:06.844Z,72.60
2022-07-29T23:14:11.277Z,73.29
2022-07-29T23:19:15.620Z,73.20
2022-07-29T23:24:32.129Z,73.19
2022-07-29T23:29:36.932Z,73.42
2022-07-29T23:34:41.254Z,73.42
2022-07-29T23:39:45.587Z,73.76
2022-07-29T23:44:50.118Z,73.79
2022-07-29T23:49:56.610Z,73.89
2022-07-29T23:55:37.333Z,73.93
